Time;durP1;ratioP1;P1;durP2;ratioP2;P2;SDS_P1;SDS_P2;PMS_P1;PMS_P2;Temp;Humidity;BMP_temperature;BMP_pressure;BME280_temperature;BME280_humidity;BME280_pressure;Samples;Min_cycle;Max_cycle;Signal;HPM_P1;HPM_P2
2023/10/20 00:00:53;;;;;;;61.50;32.20;;;12.30;99.90;;;;;;5025245;28;20053;-85
2023/10/20 00:03:41;;;;;;;54.67;31.27;;;12.20;99.90;;;;;;5023218;28;20052;-88
2023/10/20 00:06:29;;;;;;;52.88;30.08;;;12.30;99.90;;;;;;5031891;28;20053;-85
2023/10/20 00:09:18;;;;;;;60.17;31.80;;;12.30;99.90;;;;;;5032222;28;20049;-86
2023/10/20 00:12:10;;;;;;;68.03;34.33;;;12.20;99.90;;;;;;5028266;28;20099;-88
2023/10/20 00:14:57;;;;;;;68.05;34.90;;;12.30;99.90;;;;;;5029862;28;20373;-87
2023/10/20 00:17:44;;;;;;;78.13;38.92;;;12.30;99.90;;;;;;5029791;28;20064;-85
2023/10/20 00:20:32;;;;;;;59.90;33.97;;;12.30;99.90;;;;;;5029212;28;20042;-86
2023/10/20 00:23:19;;;;;;;62.05;35.42;;;12.20;99.90;;;;;;5027795;28;20051;-85
2023/10/20 00:26:06;;;;;;;64.28;33.88;;;12.20;99.90;;;;;;5033680;28;20073;-86
2023/10/20 00:28:54;;;;;;;53.80;30.98;;;12.20;99.90;;;;;;5022070;28;20099;-85
2023/10/20 00:31:41;;;;;;;57.47;30.85;;;12.20;99.90;;;;;;5030861;28;20045;-85
2023/10/20 00:34:30;;;;;;;47.17;28.98;;;12.20;99.90;;;;;;5031677;28;20065;-83
2023/10/20 00:37:18;;;;;;;36.65;23.77;;;12.20;99.90;;;;;;5035922;28;20415;-86
2023/10/20 00:40:07;;;;;;;59.38;30.35;;;12.20;99.90;;;;;;5030367;28;20061;-85
2023/10/20 00:42:57;;;;;;;57.75;30.38;;;12.20;99.90;;;;;;5029576;28;20383;-87
2023/10/20 00:45:45;;;;;;;72.45;37.08;;;12.20;99.90;;;;;;5041489;28;20052;-81
2023/10/20 00:48:34;;;;;;;61.67;35.38;;;12.20;99.90;;;;;;5027642;28;20073;-86
2023/10/20 00:51:24;;;;;;;63.33;34.63;;;12.20;99.90;;;;;;5032251;28;20048;-86
2023/10/20 00:54:14;;;;;;;48.72;29.88;;;12.20;99.90;;;;;;5032710;28;20199;-82
2023/10/20 00:57:02;;;;;;;55.83;30.67;;;12.20;99.90;;;;;;5027732;28;20043;-87
2023/10/20 00:59:49;;;;;;;51.80;29.88;;;12.20;99.90;;;;;;5036723;28;20052;-86
2023/10/20 01:02:37;;;;;;;42.83;26.38;;;12.20;99.90;;;;;;5032449;28;20045;-86
2023/10/20 01:05:25;;;;;;;51.38;28.17;;;12.20;99.90;;;;;;5035430;28;20037;-86
2023/10/20 01:08:13;;;;;;;40.00;23.77;;;12.30;99.90;;;;;;5039264;28;20041;-86
2023/10/20 01:11:00;;;;;;;43.63;23.75;;;12.20;99.90;;;;;;5036720;28;20041;-86
2023/10/20 01:13:48;;;;;;;38.85;21.63;;;12.20;99.90;;;;;;5028494;28;20070;-86
2023/10/20 01:16:35;;;;;;;43.28;24.95;;;12.30;99.90;;;;;;5025755;28;20053;-87
2023/10/20 01:19:23;;;;;;;33.53;20.48;;;12.30;99.90;;;;;;5027065;28;20042;-86
2023/10/20 01:22:10;;;;;;;32.80;19.77;;;12.30;99.90;;;;;;5042045;28;20456;-86
2023/10/20 01:25:01;;;;;;;33.58;20.38;;;12.30;99.90;;;;;;5029674;28;20061;-85
2023/10/20 01:27:48;;;;;;;35.58;19.45;;;12.30;99.90;;;;;;5044093;28;20050;-79
2023/10/20 01:30:38;;;;;;;37.58;19.60;;;12.30;99.90;;;;;;5031941;28;20080;-85
2023/10/20 01:33:27;;;;;;;35.85;19.98;;;12.20;99.90;;;;;;5023943;28;20041;-84
2023/10/20 01:36:17;;;;;;;35.42;20.38;;;12.20;99.90;;;;;;5027528;28;20049;-84
2023/10/20 01:39:07;;;;;;;41.22;21.85;;;12.20;99.90;;;;;;5034453;28;20044;-85
2023/10/20 01:41:57;;;;;;;29.05;18.50;;;12.20;99.90;;;;;;5032211;28;20045;-83
2023/10/20 01:44:47;;;;;;;32.75;19.83;;;12.20;99.90;;;;;;5023714;28;20064;-85
2023/10/20 01:47:36;;;;;;;40.10;20.98;;;12.20;99.90;;;;;;5026966;28;20059;-84
2023/10/20 01:50:26;;;;;;;28.55;18.83;;;12.20;99.90;;;;;;5026526;28;20430;-84
2023/10/20 01:53:16;;;;;;;32.90;19.52;;;12.20;99.90;;;;;;5024870;28;20041;-86
2023/10/20 01:56:04;;;;;;;29.83;18.38;;;12.20;99.90;;;;;;5031513;28;20046;-84
2023/10/20 01:58:53;;;;;;;38.88;20.80;;;12.20;99.90;;;;;;5028138;28;20045;-84
2023/10/20 02:01:41;;;;;;;31.48;18.10;;;12.20;99.90;;;;;;5031703;28;20057;-85
2023/10/20 02:04:31;;;;;;;60.75;31.50;;;12.20;99.90;;;;;;5026140;28;20050;-84
2023/10/20 02:07:18;;;;;;;71.68;34.92;;;12.10;99.90;;;;;;5023071;28;20115;-84
2023/10/20 02:10:11;;;;;;;42.83;25.55;;;12.10;99.90;;;;;;5047036;28;20399;-84
2023/10/20 02:13:01;;;;;;;36.40;21.17;;;12.10;99.90;;;;;;5031080;28;20508;-83
2023/10/20 02:15:50;;;;;;;29.23;17.42;;;12.10;99.90;;;;;;5024703;28;20116;-84
2023/10/20 02:18:38;;;;;;;24.38;15.43;;;12.10;99.90;;;;;;5033585;28;20050;-83
2023/10/20 02:21:27;;;;;;;23.65;16.27;;;12.10;99.90;;;;;;5024362;28;20331;-84
2023/10/20 02:24:15;;;;;;;27.42;16.17;;;12.20;99.90;;;;;;5029059;28;20048;-84
2023/10/20 02:27:05;;;;;;;24.05;14.82;;;12.10;99.90;;;;;;5028947;28;20053;-85
2023/10/20 02:29:59;;;;;;;23.23;15.13;;;12.20;99.90;;;;;;5029228;28;20041;-85
2023/10/20 02:32:46;;;;;;;57.10;30.23;;;12.20;99.90;;;;;;5016766;28;20049;-85
2023/10/20 02:35:34;;;;;;;64.32;32.50;;;12.10;99.90;;;;;;5038813;28;20052;-84
2023/10/20 02:38:23;;;;;;;70.10;33.33;;;12.10;99.90;;;;;;5031507;28;20179;-84
2023/10/20 02:41:21;;;;;;;47.55;26.58;;;12.00;99.90;;;;;;5028219;28;20561;-85
2023/10/20 02:44:11;;;;;;;59.25;30.27;;;12.00;99.90;;;;;;5028084;28;20060;-85
2023/10/20 02:47:01;;;;;;;63.75;30.90;;;12.00;99.90;;;;;;5013894;28;20045;-85
2023/10/20 02:49:55;;;;;;;70.18;32.28;;;11.90;99.90;;;;;;5029512;28;20192;-85
2023/10/20 02:52:43;;;;;;;69.35;34.05;;;12.00;99.90;;;;;;5021851;28;20565;-84
2023/10/20 02:55:30;;;;;;;72.47;35.38;;;12.00;99.90;;;;;;5025299;28;20053;-84
2023/10/20 02:58:26;;;;;;;66.07;34.60;;;11.90;99.90;;;;;;5028843;28;20334;-85
2023/10/20 03:01:16;;;;;;;51.50;28.70;;;12.00;99.90;;;;;;5032732;28;20049;-85
2023/10/20 03:04:04;;;;;;;44.92;26.48;;;12.00;99.90;;;;;;5026951;28;20041;-84
2023/10/20 03:06:54;;;;;;;46.28;25.85;;;12.00;99.90;;;;;;5029868;28;20102;-84
2023/10/20 03:09:41;;;;;;;62.60;29.00;;;12.00;99.90;;;;;;5012173;28;20100;-85
2023/10/20 03:12:31;;;;;;;49.90;26.92;;;12.10;99.90;;;;;;5030930;28;20354;-85
2023/10/20 03:15:20;;;;;;;50.17;25.42;;;12.00;99.90;;;;;;5023299;28;20057;-83
2023/10/20 03:18:13;;;;;;;56.72;25.73;;;12.00;99.90;;;;;;5018317;28;20347;-85
2023/10/20 03:21:01;;;;;;;47.97;24.27;;;12.10;99.90;;;;;;5020096;28;20060;-84
2023/10/20 03:23:51;;;;;;;44.35;23.60;;;12.10;99.90;;;;;;5027041;28;20064;-85
2023/10/20 03:26:39;;;;;;;45.17;25.38;;;12.10;99.90;;;;;;5024981;28;20404;-85
2023/10/20 03:29:28;;;;;;;38.42;21.55;;;12.10;99.90;;;;;;5026111;28;20053;-84
2023/10/20 03:32:16;;;;;;;46.33;22.90;;;12.00;99.90;;;;;;5023248;28;20319;-85
2023/10/20 03:35:07;;;;;;;34.53;20.35;;;12.10;99.90;;;;;;5028731;28;20533;-84
2023/10/20 03:37:57;;;;;;;28.60;19.30;;;12.00;99.90;;;;;;5028438;28;20056;-85
2023/10/20 03:40:46;;;;;;;30.40;18.92;;;12.00;99.90;;;;;;5029081;28;20124;-84
2023/10/20 03:43:35;;;;;;;32.20;19.80;;;12.00;99.90;;;;;;5030453;28;20120;-84
2023/10/20 03:46:26;;;;;;;38.05;20.70;;;12.00;99.90;;;;;;5031153;28;20053;-83
2023/10/20 03:49:18;;;;;;;38.42;23.08;;;12.00;99.90;;;;;;5019839;28;20048;-84
2023/10/20 03:52:11;;;;;;;37.63;21.90;;;11.90;99.90;;;;;;5031125;28;20049;-84
2023/10/20 03:55:01;;;;;;;35.55;22.42;;;11.90;99.90;;;;;;5021466;28;20124;-85
2023/10/20 03:57:50;;;;;;;39.33;22.33;;;12.00;99.90;;;;;;5026822;28;20061;-85
2023/10/20 04:00:41;;;;;;;41.60;22.10;;;11.90;99.90;;;;;;5025602;28;20052;-86
2023/10/20 04:03:32;;;;;;;41.33;23.27;;;11.90;99.90;;;;;;5027692;28;20077;-85
2023/10/20 04:06:22;;;;;;;43.50;24.75;;;11.90;99.90;;;;;;5032524;28;20503;-85
2023/10/20 04:09:12;;;;;;;37.28;23.40;;;11.90;99.90;;;;;;5021429;28;20048;-84
2023/10/20 04:12:03;;;;;;;42.42;23.58;;;11.90;99.90;;;;;;5032965;28;20069;-85
2023/10/20 04:14:57;;;;;;;42.55;24.95;;;11.90;99.90;;;;;;5031433;28;20109;-85
2023/10/20 04:17:51;;;;;;;47.92;25.80;;;11.80;99.90;;;;;;5028488;28;20068;-85
2023/10/20 04:20:41;;;;;;;45.72;26.05;;;11.80;99.90;;;;;;5022992;28;20054;-84
2023/10/20 04:23:30;;;;;;;48.35;27.73;;;11.80;99.90;;;;;;5031816;28;20042;-85
2023/10/20 04:26:22;;;;;;;52.67;28.63;;;11.80;99.90;;;;;;5034268;28;20052;-85
2023/10/20 04:54:19;;;;;;;71.80;38.35;;;11.70;99.90;;;;;;5024382;28;20156;-83
2023/10/20 05:00:41;;;;;;;77.07;40.10;;;11.60;99.90;;;;;;4974614;28;20125;-82
2023/10/20 05:03:44;;;;;;;82.50;39.08;;;11.60;99.90;;;;;;4959123;28;20062;-86
2023/10/20 05:06:42;;;;;;;77.82;40.50;;;11.60;99.90;;;;;;5033164;28;20041;-84
2023/10/20 05:09:32;;;;;;;75.72;40.83;;;11.50;99.90;;;;;;5037058;28;20049;-86
2023/10/20 05:12:24;;;;;;;79.38;42.78;;;11.50;99.90;;;;;;5027208;28;20124;-85
2023/10/20 05:15:16;;;;;;;86.18;44.70;;;11.50;99.90;;;;;;5030227;28;20045;-84
2023/10/20 05:18:14;;;;;;;77.60;43.73;;;11.50;99.90;;;;;;5031439;28;20077;-84
2023/10/20 05:21:04;;;;;;;99.25;46.13;;;11.50;99.90;;;;;;5029508;28;20308;-84
2023/10/20 05:23:51;;;;;;;89.88;46.83;;;11.50;99.90;;;;;;5036060;28;20124;-83
2023/10/20 05:26:39;;;;;;;93.80;47.05;;;11.50;99.90;;;;;;5032779;28;20072;-84
2023/10/20 05:29:28;;;;;;;87.25;47.13;;;11.50;99.90;;;;;;5031190;28;20147;-84
2023/10/20 05:32:17;;;;;;;82.80;46.28;;;11.50;99.90;;;;;;5028932;28;20198;-83
2023/10/20 05:35:07;;;;;;;86.25;47.28;;;11.40;99.90;;;;;;5034951;28;20061;-83
2023/10/20 05:37:54;;;;;;;91.32;47.85;;;11.40;99.90;;;;;;5033492;28;20045;-84
2023/10/20 05:40:44;;;;;;;90.90;48.08;;;11.40;99.90;;;;;;5026876;28;20042;-85
2023/10/20 05:43:42;;;;;;;;;;;;;;;;;;;;;
2023/10/20 05:46:37;;;;;;;78.80;43.83;;;11.40;99.90;;;;;;5035096;28;20111;-85
2023/10/20 05:49:26;;;;;;;77.38;43.65;;;11.30;99.90;;;;;;5034983;28;20187;-86
2023/10/20 05:52:19;;;;;;;;;;;11.30;99.90;;;;;;5035684;28;20053;-86
2023/10/20 05:55:36;;;;;;;69.55;38.35;;;11.30;99.90;;;;;;5022164;28;19921;-87
2023/10/20 05:58:28;;;;;;;64.47;37.88;;;11.30;99.90;;;;;;5039656;28;20049;-86
2023/10/20 06:01:39;;;;;;;60.85;36.70;;;11.30;99.90;;;;;;5036191;28;20041;-87
2023/10/20 06:04:32;;;;;;;60.25;34.55;;;11.30;99.90;;;;;;5025301;28;20042;-85
2023/10/20 06:07:27;;;;;;;59.08;35.35;;;11.30;99.90;;;;;;5034020;28;20045;-88
2023/10/20 06:10:24;;;;;;;57.90;36.05;;;11.40;99.90;;;;;;5028888;28;20131;-87
2023/10/20 06:13:14;;;;;;;56.00;34.42;;;11.30;99.90;;;;;;5026608;28;20073;-87
2023/10/20 06:16:08;;;;;;;55.90;35.42;;;11.30;99.90;;;;;;5026844;28;20045;-84
2023/10/20 06:19:17;;;;;;;53.88;34.05;;;11.30;99.90;;;;;;5035359;28;20053;-86
2023/10/20 06:22:09;;;;;;;56.38;35.35;;;11.30;99.90;;;;;;5025036;28;20201;-87
2023/10/20 06:24:58;;;;;;;54.75;33.50;;;11.30;99.90;;;;;;5030463;28;20107;-84
2023/10/20 06:27:50;;;;;;;51.63;31.20;;;11.40;99.90;;;;;;5025081;28;20402;-86
2023/10/20 06:30:43;;;;;;;49.92;30.77;;;11.40;99.90;;;;;;5026743;28;20090;-86
2023/10/20 06:33:33;;;;;;;46.78;30.50;;;11.40;99.90;;;;;;5037144;28;20462;-84
2023/10/20 06:36:25;;;;;;;45.20;29.23;;;11.40;99.90;;;;;;5032391;28;20061;-85
2023/10/20 06:39:18;;;;;;;44.97;28.55;;;11.50;99.90;;;;;;5037642;28;20053;-85
2023/10/20 06:42:06;;;;;;;41.38;25.92;;;11.50;99.90;;;;;;5033306;28;20038;-86
2023/10/20 06:44:56;;;;;;;41.08;26.88;;;11.50;99.90;;;;;;5033313;28;20037;-85
2023/10/20 06:47:46;;;;;;;40.10;25.65;;;11.60;99.90;;;;;;5041544;28;20065;-83
2023/10/20 06:50:35;;;;;;;30.07;20.17;;;11.60;99.90;;;;;;5046289;28;20037;-81
2023/10/20 06:53:23;;;;;;;37.70;24.27;;;11.70;99.90;;;;;;5053661;28;20167;-86
2023/10/20 06:56:11;;;;;;;33.10;23.35;;;11.70;99.90;;;;;;5034933;28;20052;-85
2023/10/20 06:59:20;;;;;;;34.80;23.80;;;11.70;99.90;;;;;;5039824;28;20053;-86
2023/10/20 07:02:07;;;;;;;33.03;22.63;;;11.70;99.90;;;;;;5041424;28;20037;-85
2023/10/20 07:05:05;;;;;;;36.30;24.40;;;11.70;99.90;;;;;;5021758;28;20042;-84
2023/10/20 07:07:55;;;;;;;34.63;22.80;;;11.70;99.90;;;;;;5031342;28;20077;-84
2023/10/20 07:10:43;;;;;;;30.58;21.90;;;11.70;99.90;;;;;;5029133;28;20037;-85
2023/10/20 07:13:34;;;;;;;38.78;22.85;;;11.80;99.90;;;;;;5036111;28;20098;-85
2023/10/20 07:16:27;;;;;;;31.17;21.98;;;11.80;99.90;;;;;;5029669;28;20418;-85
2023/10/20 07:19:15;;;;;;;30.13;22.08;;;11.80;99.90;;;;;;5036312;28;20073;-85
2023/10/20 07:22:03;;;;;;;31.27;21.70;;;11.80;99.90;;;;;;5024655;28;20046;-87
2023/10/20 07:24:52;;;;;;;28.48;20.80;;;11.80;99.90;;;;;;5037508;28;20055;-87
2023/10/20 07:27:45;;;;;;;28.23;20.40;;;11.80;99.90;;;;;;5034471;28;20135;-85
2023/10/20 07:30:36;;;;;;;33.22;20.83;;;11.90;99.90;;;;;;5019101;28;20615;-86
2023/10/20 07:33:24;;;;;;;30.83;20.85;;;11.90;99.90;;;;;;5037831;28;20053;-84
2023/10/20 07:36:11;;;;;;;26.95;20.25;;;11.90;99.90;;;;;;5027135;28;20141;-83
2023/10/20 07:39:01;;;;;;;31.88;21.23;;;11.90;99.90;;;;;;5027172;28;20152;-84
2023/10/20 07:41:52;;;;;;;27.80;20.83;;;12.00;99.90;;;;;;5026131;28;20045;-84
2023/10/20 07:44:40;;;;;;;29.33;20.58;;;12.00;99.90;;;;;;5030701;28;20096;-84
2023/10/20 07:47:30;;;;;;;29.80;22.25;;;12.10;99.90;;;;;;5044360;28;20143;-85
2023/10/20 07:50:20;;;;;;;28.23;21.23;;;12.10;99.90;;;;;;5034163;28;20045;-85
2023/10/20 07:53:10;;;;;;;25.73;20.13;;;12.20;99.90;;;;;;5030901;28;20041;-85
2023/10/20 07:55:57;;;;;;;26.08;20.20;;;12.20;99.90;;;;;;5032000;28;20045;-86
2023/10/20 07:58:57;;;;;;;27.45;19.25;;;12.20;99.90;;;;;;5015229;28;20053;-87
2023/10/20 08:01:45;;;;;;;25.10;19.33;;;12.30;99.90;;;;;;5030513;28;20053;-87
2023/10/20 08:04:36;;;;;;;27.65;19.13;;;12.40;99.90;;;;;;5028179;28;20130;-86
2023/10/20 08:07:27;;;;;;;25.70;18.45;;;12.40;99.90;;;;;;5030367;28;20037;-87
2023/10/20 08:10:14;;;;;;;22.13;17.65;;;12.50;99.90;;;;;;5041063;28;20048;-86
2023/10/20 08:13:04;;;;;;;24.20;17.20;;;12.50;99.90;;;;;;5029827;28;20151;-86
2023/10/20 08:15:54;;;;;;;22.50;17.33;;;12.60;99.90;;;;;;5031288;28;20049;-86
2023/10/20 08:18:42;;;;;;;23.33;17.77;;;12.60;99.90;;;;;;5029074;28;20073;-82
2023/10/20 08:21:32;;;;;;;23.25;18.20;;;12.60;99.90;;;;;;5031615;28;20045;-86
2023/10/20 08:24:22;;;;;;;25.52;18.00;;;12.70;99.90;;;;;;5033077;28;20068;-86
2023/10/20 08:27:18;;;;;;;25.70;19.05;;;12.60;99.90;;;;;;5030445;28;20099;-87
2023/10/20 08:30:11;;;;;;;27.80;19.10;;;12.70;99.90;;;;;;5022587;28;20561;-86
2023/10/20 08:33:03;;;;;;;24.40;17.48;;;12.70;99.90;;;;;;5024639;28;20347;-87
2023/10/20 08:36:14;;;;;;;24.17;17.60;;;12.90;99.90;;;;;;5038059;28;20045;-86
2023/10/20 08:39:13;;;;;;;24.80;17.58;;;13.10;99.90;;;;;;5025058;28;20065;-86
2023/10/20 08:42:02;;;;;;;21.50;16.52;;;13.30;99.90;;;;;;5027188;28;20100;-85
2023/10/20 08:44:52;;;;;;;24.10;16.88;;;13.50;99.90;;;;;;5034601;28;20068;-86
2023/10/20 08:47:43;;;;;;;22.92;16.42;;;13.50;99.90;;;;;;5036009;28;20037;-85
2023/10/20 08:50:31;;;;;;;19.92;15.80;;;13.50;99.90;;;;;;5027954;28;20370;-85
2023/10/20 08:53:23;;;;;;;21.45;15.88;;;13.50;99.90;;;;;;5035392;28;20060;-85
2023/10/20 08:56:12;;;;;;;17.25;13.07;;;13.50;99.90;;;;;;5035852;28;20055;-84
2023/10/20 08:59:05;;;;;;;19.33;12.90;;;13.70;99.90;;;;;;5034002;28;20071;-87
2023/10/20 09:01:52;;;;;;;22.33;13.95;;;13.90;99.90;;;;;;5038782;28;20179;-85
2023/10/20 09:04:41;;;;;;;15.13;11.35;;;14.10;99.90;;;;;;5040263;28;20088;-85
2023/10/20 09:07:31;;;;;;;15.45;11.43;;;14.20;99.90;;;;;;5036777;28;20057;-85
2023/10/20 09:10:24;;;;;;;17.88;12.23;;;14.10;99.90;;;;;;5030705;28;20175;-85
2023/10/20 09:13:11;;;;;;;20.58;11.20;;;14.10;99.90;;;;;;5038838;28;20140;-85
2023/10/20 09:16:02;;;;;;;12.55;10.18;;;14.20;99.90;;;;;;5029964;28;20065;-85
2023/10/20 09:18:53;;;;;;;12.70;10.10;;;14.20;99.90;;;;;;5039807;28;20047;-85
2023/10/20 09:21:47;;;;;;;16.35;10.40;;;14.30;99.90;;;;;;5030249;28;20038;-84
2023/10/20 09:24:34;;;;;;;13.45;10.85;;;14.30;99.90;;;;;;5026166;28;20138;-84
2023/10/20 09:27:22;;;;;;;14.27;10.25;;;14.40;99.90;;;;;;5027664;28;20050;-84
2023/10/20 09:30:15;;;;;;;13.30;11.02;;;14.40;99.90;;;;;;5040193;28;20120;-84
2023/10/20 09:33:05;;;;;;;13.88;10.57;;;14.50;99.90;;;;;;5029098;28;20053;-87
2023/10/20 09:35:59;;;;;;;10.85;8.95;;;14.90;1.10;;;;;;5031296;28;20065;-87
2023/10/20 09:39:47;;;;;;;9.93;7.38;;;15.70;99.90;;;;;;5001649;28;20052;-85
2023/10/20 09:43:09;;;;;;;8.20;6.70;;;16.40;99.90;;;;;;5027730;28;20057;-88
2023/10/20 09:46:44;;;;;;;10.10;6.70;;;16.10;99.90;;;;;;5029596;28;20038;-87
2023/10/20 09:49:39;;;;;;;8.85;6.18;;;15.90;1.00;;;;;;5059847;28;20124;-86
2023/10/20 09:52:33;;;;;;;7.68;5.80;;;16.30;99.90;;;;;;5020828;28;20049;-87
2023/10/20 09:55:27;;;;;;;7.45;4.72;;;17.20;1.00;;;;;;5032892;28;20361;-88
2023/10/20 09:58:32;;;;;;;8.57;5.07;;;17.40;1.00;;;;;;5038197;28;20037;-87
2023/10/20 10:01:23;;;;;;;6.22;4.63;;;17.40;99.90;;;;;;5023423;28;20066;-87
2023/10/20 10:04:16;;;;;;;9.40;4.55;;;17.10;99.90;;;;;;5033599;28;20050;-88
2023/10/20 10:07:04;;;;;;;6.90;4.22;;;16.80;99.90;;;;;;5034325;28;20053;-84
2023/10/20 10:09:54;;;;;;;5.00;4.10;;;17.10;99.90;;;;;;5035228;28;20045;-88
2023/10/20 10:13:04;;;;;;;4.38;3.38;;;17.10;99.90;;;;;;5038639;28;20112;-88
2023/10/20 10:16:12;;;;;;;4.20;3.28;;;17.40;99.90;;;;;;5047170;28;20489;-87
2023/10/20 10:19:07;;;;;;;4.57;2.95;;;17.20;99.90;;;;;;5039665;28;20049;-87
2023/10/20 10:22:01;;;;;;;4.90;3.22;;;16.90;99.90;;;;;;5027286;28;20072;-86
2023/10/20 10:24:53;;;;;;;8.15;3.63;;;16.80;99.90;;;;;;5039352;28;20045;-86
2023/10/20 10:27:42;;;;;;;5.43;3.00;;;16.70;99.90;;;;;;5040516;28;20106;-85
2023/10/20 10:30:30;;;;;;;3.75;2.65;;;17.20;99.90;;;;;;5033757;28;20504;-86
2023/10/20 10:33:22;;;;;;;3.58;2.20;;;17.10;99.90;;;;;;5039955;28;20462;-85
2023/10/20 10:36:15;;;;;;;3.78;2.78;;;16.90;99.90;;;;;;5040046;28;20049;-83
2023/10/20 10:39:02;;;;;;;;;;;16.70;99.90;;;;;;5046104;28;20132;-85
2023/10/20 10:41:52;;;;;;;2.13;1.40;;;16.40;99.90;;;;;;5042000;28;19932;-87
2023/10/20 10:44:40;;;;;;;2.17;1.23;;;16.20;99.90;;;;;;5039549;28;20041;-85
2023/10/20 10:47:32;;;;;;;2.40;1.00;;;16.20;99.90;;;;;;5039941;28;20456;-85
2023/10/20 10:50:22;;;;;;;0.80;0.80;;;16.20;99.90;;;;;;5022585;28;20059;-87
2023/10/20 10:53:14;;;;;;;3.03;1.08;;;16.40;1.00;;;;;;5033225;28;20060;-85
2023/10/20 10:56:02;;;;;;;2.95;1.73;;;16.60;11.50;;;;;;5038964;28;20045;-85
2023/10/20 10:58:51;;;;;;;2.85;1.52;;;16.70;87.10;;;;;;5030618;28;20053;-85
2023/10/20 11:01:45;;;;;;;2.38;1.30;;;16.50;99.90;;;;;;5038640;28;20383;-84
2023/10/20 11:04:33;;;;;;;2.15;0.90;;;16.30;99.90;;;;;;5031222;28;20056;-83
2023/10/20 11:07:23;;;;;;;0.50;0.50;;;16.20;9.70;;;;;;5028819;28;20053;-86
2023/10/20 11:10:15;;;;;;;3.40;0.50;;;16.20;1.00;;;;;;5029655;28;20103;-85
2023/10/20 11:13:10;;;;;;;0.55;0.55;;;16.20;1.00;;;;;;5035366;28;20041;-85
2023/10/20 11:16:08;;;;;;;0.77;0.50;;;16.40;1.00;;;;;;5031150;28;20060;-85
2023/10/20 11:19:01;;;;;;;0.70;0.63;;;16.40;1.00;;;;;;5030833;28;20423;-84
2023/10/20 11:22:01;;;;;;;3.00;0.70;;;16.40;1.00;;;;;;5031554;28;20624;-85
2023/10/20 11:25:35;;;;;;;0.50;0.50;;;16.30;1.00;;;;;;4958133;28;20524;-88
2023/10/20 11:28:46;;;;;;;0.90;0.55;;;16.20;1.00;;;;;;4975240;28;20462;-85
2023/10/20 11:31:38;;;;;;;0.50;0.43;;;16.10;1.00;;;;;;5031237;28;20122;-83
2023/10/20 11:34:30;;;;;;;0.73;0.43;;;16.20;1.00;;;;;;5029248;28;20037;-86
2023/10/20 11:37:18;;;;;;;0.40;0.40;;;16.00;1.00;;;;;;5025851;28;20118;-84
2023/10/20 11:40:07;;;;;;;0.95;0.40;;;15.90;1.00;;;;;;5033212;28;20179;-85
2023/10/20 11:43:00;;;;;;;1.15;0.50;;;16.00;1.00;;;;;;5031299;28;20049;-86
2023/10/20 11:45:50;;;;;;;0.40;0.40;;;16.00;1.00;;;;;;5027323;28;20438;-85
2023/10/20 11:48:37;;;;;;;1.40;0.45;;;16.00;1.00;;;;;;5030135;28;20041;-86
2023/10/20 11:51:27;;;;;;;0.30;0.30;;;16.10;1.00;;;;;;5030247;28;20615;-86
2023/10/20 11:54:20;;;;;;;0.77;0.43;;;16.00;1.00;;;;;;5029019;28;20095;-84
2023/10/20 11:57:08;;;;;;;0.40;0.40;;;16.00;1.00;;;;;;5034507;28;20061;-85
2023/10/20 12:00:07;;;;;;;1.75;0.40;;;16.00;1.00;;;;;;5034613;28;20081;-86
2023/10/20 12:02:57;;;;;;;0.40;0.40;;;16.00;1.00;;;;;;5032604;28;20056;-80
2023/10/20 12:05:46;;;;;;;1.25;0.30;;;16.00;1.00;;;;;;5027754;28;20046;-87
2023/10/20 12:08:34;;;;;;;0.40;0.30;;;16.00;1.00;;;;;;5040011;28;20230;-85
2023/10/20 12:11:25;;;;;;;0.30;0.30;;;16.00;1.00;;;;;;5035680;28;20373;-85
2023/10/20 12:14:14;;;;;;;1.25;0.43;;;16.10;1.00;;;;;;5034424;28;20048;-85
2023/10/20 12:17:06;;;;;;;2.55;0.50;;;16.20;1.00;;;;;;5024378;28;20465;-84
2023/10/20 12:19:54;;;;;;;0.40;0.40;;;16.40;1.00;;;;;;5030878;28;20127;-85
2023/10/20 12:22:44;;;;;;;0.45;0.45;;;16.60;99.90;;;;;;5036542;28;20177;-85
2023/10/20 12:25:37;;;;;;;0.40;0.30;;;16.60;99.90;;;;;;5035225;28;20077;-85
2023/10/20 12:28:26;;;;;;;2.05;0.50;;;17.00;99.90;;;;;;5025772;28;20076;-85
2023/10/20 12:31:15;;;;;;;0.65;0.40;;;17.40;99.90;;;;;;5044758;28;20060;-85
2023/10/20 12:34:10;;;;;;;1.27;0.77;;;17.50;21.10;;;;;;5031405;28;20046;-84
2023/10/20 12:37:03;;;;;;;0.40;0.40;;;17.00;1.00;;;;;;5039681;28;20120;-86
2023/10/20 12:39:51;;;;;;;0.50;0.30;;;17.00;1.00;;;;;;5035978;28;20064;-83
2023/10/20 12:42:43;;;;;;;1.83;0.50;;;17.00;1.00;;;;;;5041672;28;20055;-85
2023/10/20 12:45:33;;;;;;;0.40;0.40;;;16.80;1.00;;;;;;5036214;28;20053;-85
2023/10/20 12:48:23;;;;;;;0.40;0.40;;;16.60;1.00;;;;;;5044944;28;20037;-84
2023/10/20 12:51:14;;;;;;;0.57;0.40;;;16.60;1.00;;;;;;5037984;28;20219;-84
2023/10/20 12:54:11;;;;;;;0.30;0.30;;;16.50;1.00;;;;;;5040860;28;20116;-85
2023/10/20 12:57:00;;;;;;;0.40;0.40;;;16.40;1.00;;;;;;5025966;28;20046;-84
2023/10/20 12:59:51;;;;;;;0.80;0.30;;;16.40;1.00;;;;;;5026704;28;20065;-84
2023/10/20 13:02:43;;;;;;;0.30;0.30;;;16.20;1.00;;;;;;5038826;28;20091;-84
2023/10/20 13:05:33;;;;;;;0.75;0.47;;;16.20;1.00;;;;;;5032511;28;20128;-85
2023/10/20 13:08:21;;;;;;;1.73;0.30;;;16.10;1.00;;;;;;5032268;28;20434;-84
2023/10/20 13:11:15;;;;;;;0.32;0.30;;;16.10;1.00;;;;;;5030051;28;20144;-85
2023/10/20 13:14:03;;;;;;;0.60;0.38;;;16.20;99.90;;;;;;5038001;28;20136;-87
2023/10/20 13:16:53;;;;;;;1.05;0.20;;;16.20;99.90;;;;;;5038039;28;20135;-86
2023/10/20 13:19:41;;;;;;;0.40;0.40;;;16.10;99.90;;;;;;5032944;28;20049;-86
2023/10/20 13:22:34;;;;;;;0.30;0.30;;;16.20;99.90;;;;;;5034730;28;20179;-85
2023/10/20 13:25:32;;;;;;;0.25;0.25;;;16.20;99.90;;;;;;5034124;28;20042;-86
2023/10/20 13:28:37;;;;;;;0.55;0.40;;;16.20;99.90;;;;;;5028707;28;20072;-86
2023/10/20 13:31:26;;;;;;;0.60;0.40;;;16.10;99.90;;;;;;5034769;28;20049;-87
2023/10/20 13:34:14;;;;;;;0.30;0.30;;;16.00;99.90;;;;;;5038791;28;20173;-87
2023/10/20 13:37:05;;;;;;;1.75;0.50;;;15.90;99.90;;;;;;5031396;28;20064;-86
2023/10/20 13:40:08;;;;;;;0.50;0.50;;;15.90;99.90;;;;;;5035761;28;20045;-88
2023/10/20 13:42:56;;;;;;;0.30;0.30;;;15.70;99.90;;;;;;5018236;28;20064;-85
2023/10/20 13:45:43;;;;;;;0.40;0.40;;;15.50;99.90;;;;;;5026520;28;20060;-87
2023/10/20 13:48:49;;;;;;;0.52;0.52;;;15.30;99.90;;;;;;5040669;28;20046;-88
2023/10/20 13:51:42;;;;;;;0.50;0.50;;;15.10;99.90;;;;;;5025407;28;20060;-86
2023/10/20 13:54:33;;;;;;;0.80;0.50;;;14.80;1.00;;;;;;5022916;28;20041;-88
2023/10/20 13:57:45;;;;;;;0.85;0.40;;;14.70;1.00;;;;;;5033519;28;20468;-85
2023/10/20 14:00:37;;;;;;;0.70;0.45;;;14.60;1.00;;;;;;5035753;28;20045;-83
2023/10/20 14:03:26;;;;;;;1.88;0.50;;;14.50;1.00;;;;;;5032012;28;20041;-82
2023/10/20 14:06:18;;;;;;;0.45;0.45;;;14.30;14.10;;;;;;5024150;28;20048;-83
2023/10/20 14:09:08;;;;;;;0.40;0.40;;;14.20;99.90;;;;;;5033880;28;20045;-84
2023/10/20 14:11:55;;;;;;;1.27;0.60;;;14.00;99.90;;;;;;5026483;28;20059;-84
2023/10/20 14:14:49;;;;;;;1.50;0.60;;;13.90;99.90;;;;;;5030217;28;20101;-83
2023/10/20 14:17:41;;;;;;;0.75;0.63;;;13.70;1.00;;;;;;5029962;28;20048;-83
2023/10/20 14:20:31;;;;;;;3.40;1.00;;;13.60;99.90;;;;;;5031900;28;20041;-81
2023/10/20 14:23:19;;;;;;;0.82;0.60;;;13.40;98.70;;;;;;5033176;28;20438;-82
2023/10/20 14:26:06;;;;;;;2.28;1.13;;;13.20;1.00;;;;;;5024434;28;20041;-82
2023/10/20 14:28:56;;;;;;;0.98;0.68;;;13.10;99.90;;;;;;5026014;28;20049;-85
2023/10/20 14:31:44;;;;;;;0.68;0.68;;;13.00;99.90;;;;;;5025850;28;20069;-83
2023/10/20 14:34:32;;;;;;;1.65;0.60;;;12.90;99.90;;;;;;5030498;28;20045;-82
2023/10/20 14:37:19;;;;;;;2.00;1.48;;;12.80;1.00;;;;;;5027559;28;20080;-82
2023/10/20 14:40:07;;;;;;;1.33;0.60;;;12.80;1.00;;;;;;5031637;28;20064;-85
2023/10/20 14:43:02;;;;;;;0.50;0.50;;;12.70;99.90;;;;;;5024030;28;20041;-83
2023/10/20 14:45:57;;;;;;;0.60;0.60;;;12.60;99.90;;;;;;5030850;28;20342;-84
2023/10/20 14:48:47;;;;;;;4.43;0.80;;;12.50;99.90;;;;;;5029347;28;20358;-84
2023/10/20 14:51:37;;;;;;;0.93;0.70;;;12.40;1.00;;;;;;5037212;28;20391;-84
2023/10/20 14:54:26;;;;;;;1.23;0.77;;;12.40;1.00;;;;;;5026984;28;20068;-83
2023/10/20 14:57:16;;;;;;;2.13;1.50;;;12.40;1.00;;;;;;5026223;28;20443;-83
2023/10/20 15:00:09;;;;;;;5.22;1.30;;;12.30;41.00;;;;;;5024968;28;20041;-84
2023/10/20 15:02:58;;;;;;;1.15;0.82;;;12.30;99.90;;;;;;5020007;28;20046;-85
2023/10/20 15:05:46;;;;;;;2.13;0.88;;;12.30;99.90;;;;;;5020376;28;20080;-84
2023/10/20 15:08:33;;;;;;;2.03;0.90;;;12.30;99.90;;;;;;5026635;28;20056;-83
2023/10/20 15:11:21;;;;;;;0.75;0.68;;;12.30;99.90;;;;;;5025677;28;20082;-83